Time,TemperatureF,DewpointF,PressureIn,WindDirection,WindDirectionDegrees,WindSpeedMPH,WindSpeedGustMPH,Humidity,HourlyPrecipIn,Conditions,Clouds,dailyrainin,SoftwareType,DateUTC
2013-02-16 00:00:00,28.3,24.1,30.03,West,279,6.0,6.0,84,0.00,,,0.03,Wunderground v.1.15,2013-02-16 05:00:00,
2013-02-16 00:02:00,28.3,24.1,30.03,West,277,6.0,13.0,84,0.00,,,0.00,Wunderground v.1.15,2013-02-16 05:02:00,
2013-02-16 00:04:00,28.4,24.2,30.03,WNW,284,6.0,13.0,84,0.00,,,0.00,Wunderground v.1.15,2013-02-16 05:04:00,
2013-02-16 00:08:00,28.5,24.3,30.03,West,279,7.0,13.0,84,0.00,,,0.00,Wunderground v.1.15,2013-02-16 05:08:00,
2013-02-16 00:14:00,28.6,24.1,30.03,WNW,296,8.0,13.0,83,0.00,,,0.00,Wunderground v.1.15,2013-02-16 05:14:00,
2013-02-16 00:20:00,28.7,24.2,30.04,WNW,298,9.0,9.0,83,0.00,,,0.00,Wunderground v.1.15,2013-02-16 05:20:00,
2013-02-16 00:26:00,28.7,24.2,30.04,West,278,7.0,9.0,83,0.00,,,0.00,Wunderground v.1.15,2013-02-16 05:26:00,
2013-02-16 00:32:00,28.6,23.5,30.04,NNW,336,7.0,7.0,81,0.00,,,0.00,Wunderground v.1.15,2013-02-16 05:32:00,
2013-02-16 00:38:00,28.5,22.5,30.04,WNW,292,9.0,12.0,78,0.00,,,0.00,Wunderground v.1.15,2013-02-16 05:38:00,
2013-02-16 00:44:00,28.3,22.3,30.04,NW,311,10.0,12.0,78,0.00,,,0.00,Wunderground v.1.15,2013-02-16 05:44:00,
2013-02-16 00:50:00,28.1,22.1,30.04,West,265,7.0,7.0,78,0.00,,,0.00,Wunderground v.1.15,2013-02-16 05:50:00,
2013-02-16 00:56:00,27.9,21.9,30.04,West,277,6.0,9.0,78,0.00,,,0.00,Wunderground v.1.15,2013-02-16 05:56:00,
2013-02-16 01:02:00,27.7,21.7,30.04,West,271,7.0,7.0,78,0.00,,,0.00,Wunderground v.1.15,2013-02-16 06:02:00,
2013-02-16 01:08:00,27.6,21.6,30.04,West,276,5.0,8.0,78,0.00,,,0.00,Wunderground v.1.15,2013-02-16 06:08:00,
2013-02-16 01:14:00,27.5,21.5,30.04,WNW,283,5.0,10.0,78,0.00,,,0.00,Wunderground v.1.15,2013-02-16 06:14:00,
2013-02-16 01:20:00,27.4,21.4,30.04,West,277,4.0,4.0,78,0.00,,,0.00,Wunderground v.1.15,2013-02-16 06:20:00,
2013-02-16 01:26:00,27.3,21.0,30.03,West,279,4.0,4.0,77,0.00,,,0.00,Wunderground v.1.15,2013-02-16 06:26:00,
2013-02-16 01:32:00,27.2,20.3,30.03,WSW,256,5.0,9.0,75,0.00,,,0.00,Wunderground v.1.15,2013-02-16 06:32:00,
2013-02-16 01:38:00,27.2,20.0,30.03,WSW,257,6.0,12.0,74,0.00,,,0.00,Wunderground v.1.15,2013-02-16 06:38:00,
2013-02-16 01:44:00,27.2,19.7,30.03,WSW,257,6.0,7.0,73,0.00,,,0.00,Wunderground v.1.15,2013-02-16 06:44:00,
2013-02-16 01:50:00,27.0,19.5,30.03,West,277,6.0,6.0,73,0.00,,,0.00,Wunderground v.1.15,2013-02-16 06:50:00,
2013-02-16 01:56:00,26.8,19.3,30.03,West,275,5.0,6.0,73,0.00,,,0.00,Wunderground v.1.15,2013-02-16 06:56:00,
2013-02-16 02:02:00,26.6,19.1,30.03,West,278,4.0,5.0,73,0.00,,,0.00,Wunderground v.1.15,2013-02-16 07:02:00,
2013-02-16 02:08:00,26.3,18.8,30.03,West,279,5.0,14.0,73,0.00,,,0.00,Wunderground v.1.15,2013-02-16 07:08:00,
2013-02-16 02:14:00,26.1,18.6,30.03,WNW,286,6.0,9.0,73,0.00,,,0.00,Wunderground v.1.15,2013-02-16 07:14:00,
2013-02-16 02:20:00,26.0,18.2,30.03,WNW,286,8.0,8.0,72,0.00,,,0.00,Wunderground v.1.15,2013-02-16 07:20:00,
2013-02-16 02:26:00,25.7,18.2,30.03,WNW,288,6.0,11.0,73,0.00,,,0.00,Wunderground v.1.15,2013-02-16 07:26:00,
2013-02-16 02:32:00,25.6,18.1,30.03,West,276,7.0,7.0,73,0.00,,,0.00,Wunderground v.1.15,2013-02-16 07:32:00,
2013-02-16 02:38:00,25.4,17.9,30.02,WNW,298,7.0,7.0,73,0.00,,,0.00,Wunderground v.1.15,2013-02-16 07:38:00,
2013-02-16 02:44:00,25.3,17.9,30.02,West,275,7.0,14.0,73,0.00,,,0.00,Wunderground v.1.15,2013-02-16 07:44:00,
2013-02-16 02:50:00,25.2,18.1,30.02,West,275,8.0,9.0,74,0.00,,,0.00,Wunderground v.1.15,2013-02-16 07:50:00,
2013-02-16 02:56:00,25.2,18.4,30.02,WNW,282,7.0,9.0,75,0.00,,,0.00,Wunderground v.1.15,2013-02-16 07:56:00,
2013-02-16 03:02:00,25.3,18.8,30.02,NNW,327,6.0,11.0,76,0.00,,,0.00,Wunderground v.1.15,2013-02-16 08:02:00,
2013-02-16 03:08:00,25.5,19.6,30.02,WSW,252,7.0,11.0,78,0.00,,,0.00,Wunderground v.1.15,2013-02-16 08:08:00,
2013-02-16 03:14:00,25.6,20.6,30.02,West,273,8.0,12.0,81,0.00,,,0.00,Wunderground v.1.15,2013-02-16 08:14:00,
2013-02-16 03:20:00,25.6,21.2,30.02,NNW,329,8.0,8.0,83,0.00,,,0.00,Wunderground v.1.15,2013-02-16 08:20:00,
2013-02-16 03:26:00,25.5,21.3,30.02,WNW,289,6.0,8.0,84,0.00,,,0.00,Wunderground v.1.15,2013-02-16 08:26:00,
2013-02-16 03:32:00,25.4,21.5,30.03,WNW,298,6.0,6.0,85,0.00,,,0.00,Wunderground v.1.15,2013-02-16 08:32:00,
2013-02-16 03:38:00,25.4,21.8,30.03,West,270,6.0,6.0,86,0.00,,,0.00,Wunderground v.1.15,2013-02-16 08:38:00,
2013-02-16 03:44:00,25.4,21.8,30.03,West,280,4.0,7.0,86,0.00,,,0.00,Wunderground v.1.15,2013-02-16 08:44:00,
2013-02-16 03:50:00,25.3,22.0,30.02,West,281,4.0,5.0,87,0.00,,,0.00,Wunderground v.1.15,2013-02-16 08:50:00,
2013-02-16 03:56:00,25.3,22.0,30.02,West,279,5.0,5.0,87,0.00,,,0.00,Wunderground v.1.15,2013-02-16 08:56:00,
2013-02-16 04:02:00,25.2,21.9,30.02,WNW,299,4.0,6.0,87,0.00,,,0.00,Wunderground v.1.15,2013-02-16 09:02:00,
2013-02-16 04:08:00,25.2,21.9,30.02,NW,311,3.0,6.0,87,0.00,,,0.00,Wunderground v.1.15,2013-02-16 09:08:00,
2013-02-16 04:14:00,25.1,21.8,30.03,WNW,298,4.0,6.0,87,0.00,,,0.00,Wunderground v.1.15,2013-02-16 09:14:00,
2013-02-16 04:20:00,25.0,21.7,30.02,WNW,290,4.0,4.0,87,0.00,,,0.00,Wunderground v.1.15,2013-02-16 09:20:00,
2013-02-16 04:26:00,24.9,21.6,30.03,NW,306,4.0,4.0,87,0.00,,,0.00,Wunderground v.1.15,2013-02-16 09:26:00,
2013-02-16 04:32:00,24.7,21.1,30.02,NW,307,3.0,4.0,86,0.00,,,0.00,Wunderground v.1.15,2013-02-16 09:32:00,
2013-02-16 04:38:00,24.6,21.0,30.02,NW,325,3.0,5.0,86,0.00,,,0.00,Wunderground v.1.15,2013-02-16 09:38:00,
2013-02-16 04:44:00,24.5,20.9,30.02,NW,322,3.0,3.0,86,0.00,,,0.00,Wunderground v.1.15,2013-02-16 09:44:00,
2013-02-16 04:50:00,24.4,20.8,30.02,WNW,286,3.0,3.0,86,0.00,,,0.00,Wunderground v.1.15,2013-02-16 09:50:00,
2013-02-16 04:56:00,24.3,20.4,30.02,NW,317,3.0,3.0,85,0.00,,,0.00,Wunderground v.1.15,2013-02-16 09:56:00,
2013-02-16 05:02:00,24.2,20.3,30.03,NW,316,2.0,3.0,85,0.00,,,0.00,Wunderground v.1.15,2013-02-16 10:02:00,
2013-02-16 05:08:00,24.0,20.4,30.03,NW,313,2.0,3.0,86,0.00,,,0.00,Wunderground v.1.15,2013-02-16 10:08:00,
2013-02-16 05:14:00,24.0,20.1,30.02,NW,315,2.0,3.0,85,0.00,,,0.00,Wunderground v.1.15,2013-02-16 10:14:00,
2013-02-16 05:20:00,23.9,20.0,30.02,NW,304,3.0,3.0,85,0.00,,,0.00,Wunderground v.1.15,2013-02-16 10:20:00,
2013-02-16 05:26:00,23.8,19.9,30.02,WNW,288,3.0,3.0,85,0.00,,,0.00,Wunderground v.1.15,2013-02-16 10:26:00,
2013-02-16 05:32:00,23.7,19.9,30.02,NW,312,3.0,3.0,85,0.00,,,0.00,Wunderground v.1.15,2013-02-16 10:32:00,
2013-02-16 05:38:00,23.6,19.8,30.02,NW,309,3.0,3.0,85,0.00,,,0.00,Wunderground v.1.15,2013-02-16 10:38:00,
2013-02-16 05:43:00,23.5,19.4,30.02,NW,304,3.0,3.0,84,0.00,,,0.00,Wunderground v.1.15,2013-02-16 10:43:00,
2013-02-16 05:50:00,23.4,19.3,30.02,WNW,289,3.0,3.0,84,0.00,,,0.00,Wunderground v.1.15,2013-02-16 10:50:00,
2013-02-16 05:56:00,23.4,19.3,30.03,WNW,282,3.0,3.0,84,0.00,,,0.00,Wunderground v.1.15,2013-02-16 10:56:00,
2013-02-16 06:02:00,23.3,19.2,30.03,WNW,284,3.0,3.0,84,0.00,,,0.00,Wunderground v.1.15,2013-02-16 11:02:00,
2013-02-16 06:08:00,23.3,19.5,30.03,WNW,283,2.0,3.0,85,0.00,,,0.00,Wunderground v.1.15,2013-02-16 11:08:00,
2013-02-16 06:14:00,23.2,19.4,30.03,WNW,283,1.0,2.0,85,0.00,,,0.00,Wunderground v.1.15,2013-02-16 11:14:00,
2013-02-16 06:20:00,23.2,19.4,30.03,WNW,283,1.0,3.0,85,0.00,,,0.00,Wunderground v.1.15,2013-02-16 11:20:00,
2013-02-16 06:26:00,23.1,19.3,30.03,WNW,283,1.0,3.0,85,0.00,,,0.00,Wunderground v.1.15,2013-02-16 11:26:00,
2013-02-16 06:32:00,23.1,19.3,30.03,WNW,283,1.0,1.0,85,0.00,,,0.00,Wunderground v.1.15,2013-02-16 11:32:00,
2013-02-16 06:38:00,23.1,19.3,30.03,WNW,283,1.0,3.0,85,0.00,,,0.00,Wunderground v.1.15,2013-02-16 11:38:00,
2013-02-16 06:44:00,23.0,18.9,30.03,WNW,283,1.0,2.0,84,0.00,,,0.00,Wunderground v.1.15,2013-02-16 11:44:00,
2013-02-16 06:50:00,23.0,18.9,30.04,WNW,284,2.0,2.0,84,0.00,,,0.00,Wunderground v.1.15,2013-02-16 11:50:00,
2013-02-16 06:56:00,23.0,18.6,30.04,West,281,2.0,3.0,83,0.00,,,0.00,Wunderground v.1.15,2013-02-16 11:56:00,
2013-02-16 07:02:00,23.0,18.6,30.04,West,280,3.0,3.0,83,0.00,,,0.00,Wunderground v.1.15,2013-02-16 12:02:00,
2013-02-16 07:07:00,23.0,18.3,30.04,West,281,2.0,3.0,82,0.00,,,0.00,Wunderground v.1.15,2013-02-16 12:07:00,
2013-02-16 07:14:00,23.0,18.3,30.04,West,281,1.0,2.0,82,0.00,,,0.00,Wunderground v.1.15,2013-02-16 12:14:00,
2013-02-16 07:20:00,23.0,18.6,30.04,West,281,1.0,2.0,83,0.00,,,0.00,Wunderground v.1.15,2013-02-16 12:20:00,
2013-02-16 07:26:00,23.0,18.6,30.04,West,281,2.0,2.0,83,0.00,,,0.00,Wunderground v.1.15,2013-02-16 12:26:00,
2013-02-16 07:32:00,23.0,18.6,30.05,West,281,2.0,2.0,83,0.00,,,0.00,Wunderground v.1.15,2013-02-16 12:32:00,
2013-02-16 07:38:00,23.1,18.7,30.04,West,279,2.0,5.0,83,0.00,,,0.00,Wunderground v.1.15,2013-02-16 12:38:00,
2013-02-16 07:44:00,23.1,18.7,30.05,West,277,2.0,2.0,83,0.00,,,0.00,Wunderground v.1.15,2013-02-16 12:44:00,
2013-02-16 07:49:00,23.2,19.1,30.05,WNW,290,2.0,2.0,84,0.00,,,0.00,Wunderground v.1.15,2013-02-16 12:49:00,
2013-02-16 07:56:00,23.2,18.8,30.05,WNW,297,3.0,4.0,83,0.00,,,0.00,Wunderground v.1.15,2013-02-16 12:56:00,
2013-02-16 08:02:00,23.3,18.9,30.05,WNW,284,3.0,6.0,83,0.00,,,0.00,Wunderground v.1.15,2013-02-16 13:02:00,
2013-02-16 08:07:00,23.4,19.3,30.05,WNW,292,3.0,6.0,84,0.00,,,0.00,Wunderground v.1.15,2013-02-16 13:07:00,
2013-02-16 08:14:00,23.5,19.4,30.05,NW,311,2.0,4.0,84,0.00,,,0.00,Wunderground v.1.15,2013-02-16 13:14:00,
2013-02-16 08:19:00,23.6,19.5,30.05,NW,308,3.0,5.0,84,0.00,,,0.00,Wunderground v.1.15,2013-02-16 13:19:00,
2013-02-16 08:26:00,23.6,19.2,30.05,WNW,300,4.0,6.0,83,0.00,,,0.00,Wunderground v.1.15,2013-02-16 13:26:00,
2013-02-16 08:32:00,23.7,19.3,30.05,NW,315,4.0,4.0,83,0.00,,,0.00,Wunderground v.1.15,2013-02-16 13:32:00,
2013-02-16 08:38:00,23.7,19.0,30.05,West,277,4.0,6.0,82,0.00,,,0.00,Wunderground v.1.15,2013-02-16 13:38:00,
2013-02-16 08:43:00,23.8,19.1,30.04,West,271,5.0,6.0,82,0.00,,,0.00,Wunderground v.1.15,2013-02-16 13:43:00,
2013-02-16 08:50:00,23.9,19.2,30.04,NNW,334,5.0,6.0,82,0.00,,,0.00,Wunderground v.1.15,2013-02-16 13:50:00,
2013-02-16 08:56:00,24.1,19.4,30.04,NNW,328,5.0,9.0,82,0.00,,,0.00,Wunderground v.1.15,2013-02-16 13:56:00,
2013-02-16 09:02:00,24.2,18.9,30.04,WNW,296,4.0,5.0,80,0.00,,,0.00,Wunderground v.1.15,2013-02-16 14:02:00,
2013-02-16 09:08:00,24.3,19.0,30.05,NNW,328,5.0,7.0,80,0.00,,,0.00,Wunderground v.1.15,2013-02-16 14:08:00,
2013-02-16 09:13:00,24.8,19.5,30.04,NW,315,5.0,5.0,80,0.00,,,0.00,Wunderground v.1.15,2013-02-16 14:13:00,
2013-02-16 09:20:00,25.3,19.1,30.05,WNW,295,5.0,5.0,77,0.00,,,0.00,Wunderground v.1.15,2013-02-16 14:20:00,
2013-02-16 09:26:00,25.5,19.3,30.04,WNW,297,5.0,6.0,77,0.00,,,0.00,Wunderground v.1.15,2013-02-16 14:26:00,
2013-02-16 09:32:00,26.4,19.9,30.04,NNW,331,4.0,7.0,76,0.00,,,0.00,Wunderground v.1.15,2013-02-16 14:32:00,
2013-02-16 09:38:00,26.9,19.4,30.04,WNW,300,6.0,10.0,73,0.00,,,0.00,Wunderground v.1.15,2013-02-16 14:38:00,
2013-02-16 09:43:00,28.0,20.1,30.04,NW,312,6.0,6.0,72,0.00,,,0.00,Wunderground v.1.15,2013-02-16 14:43:00,
2013-02-16 09:50:00,28.1,19.2,30.04,NNW,336,5.0,6.0,69,0.00,,,0.00,Wunderground v.1.15,2013-02-16 14:50:00,
2013-02-16 09:56:00,28.1,19.6,30.04,NW,304,6.0,7.0,70,0.00,,,0.00,Wunderground v.1.15,2013-02-16 14:56:00,
2013-02-16 10:02:00,29.6,20.7,30.05,NW,307,6.0,6.0,69,0.00,,,0.00,Wunderground v.1.15,2013-02-16 15:02:00,
2013-02-16 10:08:00,29.5,18.8,30.05,West,264,8.0,8.0,64,0.00,,,0.00,Wunderground v.1.15,2013-02-16 15:08:00,
2013-02-16 10:14:00,29.9,18.1,30.05,West,271,8.0,10.0,61,0.00,,,0.00,Wunderground v.1.15,2013-02-16 15:14:00,
2013-02-16 10:20:00,28.3,17.7,30.05,NNW,329,7.0,7.0,64,0.00,,,0.00,Wunderground v.1.15,2013-02-16 15:20:00,
2013-02-16 10:26:00,28.3,17.7,30.05,NW,304,7.0,7.0,64,0.00,,,0.00,Wunderground v.1.15,2013-02-16 15:26:00,
2013-02-16 10:32:00,28.2,17.9,30.05,NW,322,6.0,7.0,65,0.00,,,0.00,Wunderground v.1.15,2013-02-16 15:32:00,
2013-02-16 10:38:00,28.4,17.4,30.05,WNW,285,6.0,12.0,63,0.00,,,0.00,Wunderground v.1.15,2013-02-16 15:38:00,
2013-02-16 10:44:00,28.8,17.8,30.04,WNW,293,7.0,7.0,63,0.00,,,0.00,Wunderground v.1.15,2013-02-16 15:44:00,
2013-02-16 10:50:00,28.9,17.9,30.04,West,265,6.0,10.0,63,0.00,,,0.00,Wunderground v.1.15,2013-02-16 15:50:00,
2013-02-16 10:56:00,28.9,17.5,30.04,SW,236,6.0,11.0,62,0.00,,,0.00,Wunderground v.1.15,2013-02-16 15:56:00,
2013-02-16 11:02:00,29.0,17.2,30.04,West,278,5.0,6.0,61,0.00,,,0.00,Wunderground v.1.15,2013-02-16 16:02:00,
2013-02-16 11:08:00,29.6,17.4,30.04,WNW,288,5.0,9.0,60,0.00,,,0.00,Wunderground v.1.15,2013-02-16 16:08:00,
2013-02-16 11:14:00,30.0,17.8,30.04,NW,313,4.0,5.0,60,0.00,,,0.00,Wunderground v.1.15,2013-02-16 16:14:00,
2013-02-16 11:19:00,29.5,17.7,30.04,WNW,283,4.0,4.0,61,0.00,,,0.00,Wunderground v.1.15,2013-02-16 16:19:00,
2013-02-16 11:26:00,29.4,17.2,30.04,WNW,298,5.0,5.0,60,0.00,,,0.00,Wunderground v.1.15,2013-02-16 16:26:00,
2013-02-16 11:32:00,29.6,17.4,30.04,WNW,294,6.0,6.0,60,0.00,,,0.00,Wunderground v.1.15,2013-02-16 16:32:00,
2013-02-16 11:38:00,29.1,16.5,30.04,NW,318,5.0,6.0,59,0.00,,,0.00,Wunderground v.1.15,2013-02-16 16:38:00,
2013-02-16 11:44:00,29.5,15.7,30.03,West,271,5.0,5.0,56,0.00,,,0.00,Wunderground v.1.15,2013-02-16 16:44:00,
2013-02-16 11:50:00,29.9,16.1,30.03,West,280,6.0,6.0,56,0.00,,,0.00,Wunderground v.1.15,2013-02-16 16:50:00,
2013-02-16 11:56:00,29.6,16.2,30.03,NW,323,5.0,6.0,57,0.00,,,0.00,Wunderground v.1.15,2013-02-16 16:56:00,
2013-02-16 12:02:00,30.1,15.0,30.02,WNW,291,6.0,9.0,53,0.00,,,0.00,Wunderground v.1.15,2013-02-16 17:02:00,
2013-02-16 12:07:00,29.5,14.5,30.02,WNW,283,6.0,10.0,53,0.00,,,0.00,Wunderground v.1.15,2013-02-16 17:07:00,
2013-02-16 12:32:00,30.5,14.0,30.01,WNW,288,5.0,11.0,50,0.00,,,0.00,Wunderground v.1.15,2013-02-16 17:32:00,
2013-02-16 12:38:00,30.2,14.2,30.01,WNW,294,5.0,11.0,51,0.00,,,0.00,Wunderground v.1.15,2013-02-16 17:38:00,
2013-02-16 12:44:00,31.6,13.2,30.01,West,277,3.0,6.0,46,0.00,,,0.00,Wunderground v.1.15,2013-02-16 17:44:00,
2013-02-16 12:50:00,31.5,12.6,30.01,WNW,294,5.0,5.0,45,0.00,,,0.00,Wunderground v.1.15,2013-02-16 17:50:00,
2013-02-16 12:55:00,31.6,13.2,30.00,West,269,5.0,6.0,46,0.00,,,0.00,Wunderground v.1.15,2013-02-16 17:55:00,
2013-02-16 13:02:00,32.5,14.0,30.00,WNW,287,5.0,6.0,46,0.00,,,0.00,Wunderground v.1.15,2013-02-16 18:02:00,
2013-02-16 13:07:00,32.5,12.5,30.00,SW,228,6.0,9.0,43,0.00,,,0.00,Wunderground v.1.15,2013-02-16 18:07:00,
2013-02-16 13:14:00,33.0,12.9,29.99,WNW,282,4.0,5.0,43,0.00,,,0.00,Wunderground v.1.15,2013-02-16 18:14:00,
2013-02-16 13:20:00,33.3,13.7,29.99,WNW,302,4.0,5.0,44,0.00,,,0.00,Wunderground v.1.15,2013-02-16 18:20:00,
2013-02-16 13:26:00,33.9,13.7,29.99,West,279,4.0,7.0,43,0.00,,,0.00,Wunderground v.1.15,2013-02-16 18:26:00,
2013-02-16 13:32:00,33.2,13.1,29.99,NW,318,3.0,7.0,43,0.00,,,0.00,Wunderground v.1.15,2013-02-16 18:32:00,
2013-02-16 13:38:00,32.7,14.7,29.99,WNW,290,4.0,7.0,47,0.00,,,0.00,Wunderground v.1.15,2013-02-16 18:38:00,
2013-02-16 13:44:00,33.1,13.5,29.98,WNW,290,4.0,8.0,44,0.00,,,0.00,Wunderground v.1.15,2013-02-16 18:44:00,
2013-02-16 13:50:00,34.4,13.1,29.98,West,279,4.0,4.0,41,0.00,,,0.00,Wunderground v.1.15,2013-02-16 18:50:00,
2013-02-16 13:56:00,35.5,15.7,29.98,WNW,301,2.0,6.0,44,0.00,,,0.00,Wunderground v.1.15,2013-02-16 18:56:00,
2013-02-16 14:02:00,35.1,14.3,29.97,West,265,4.0,4.0,42,0.00,,,0.00,Wunderground v.1.15,2013-02-16 19:02:00,
2013-02-16 14:08:00,33.9,13.7,29.97,WNW,292,3.0,5.0,43,0.00,,,0.00,Wunderground v.1.15,2013-02-16 19:08:00,
2013-02-16 14:14:00,35.6,14.2,29.97,WNW,293,2.0,3.0,41,0.00,,,0.00,Wunderground v.1.15,2013-02-16 19:14:00,
2013-02-16 14:20:00,36.5,15.6,29.97,NNE,32,1.0,3.0,42,0.00,,,0.00,Wunderground v.1.15,2013-02-16 19:20:00,
2013-02-16 14:26:00,36.9,14.2,29.97,NNE,33,1.0,3.0,39,0.00,,,0.00,Wunderground v.1.15,2013-02-16 19:26:00,
2013-02-16 14:31:00,36.6,13.9,29.97,NNW,333,1.0,5.0,39,0.00,,,0.00,Wunderground v.1.15,2013-02-16 19:31:00,
2013-02-16 14:38:00,34.1,12.3,29.96,WNW,298,2.0,5.0,40,0.00,,,0.00,Wunderground v.1.15,2013-02-16 19:38:00,
2013-02-16 14:44:00,32.7,13.2,29.96,West,281,3.0,6.0,44,0.00,,,0.00,Wunderground v.1.15,2013-02-16 19:44:00,
2013-02-16 14:49:00,32.6,13.6,29.95,North,9,3.0,3.0,45,0.00,,,0.00,Wunderground v.1.15,2013-02-16 19:49:00,
2013-02-16 14:56:00,37.3,15.7,29.96,NNE,27,1.0,3.0,41,0.00,,,0.00,Wunderground v.1.15,2013-02-16 19:56:00,
2013-02-16 15:02:00,37.7,14.3,29.96,NE,40,2.0,5.0,38,0.00,,,0.00,Wunderground v.1.15,2013-02-16 20:02:00,
2013-02-16 15:07:00,37.4,14.7,29.96,NE,36,3.0,5.0,39,0.00,,,0.00,Wunderground v.1.15,2013-02-16 20:07:00,
2013-02-16 15:14:00,37.1,15.0,29.97,NNE,30,1.0,2.0,40,0.00,,,0.00,Wunderground v.1.15,2013-02-16 20:14:00,
2013-02-16 15:20:00,34.4,14.2,29.97,NNW,329,2.0,2.0,43,0.00,,,0.00,Wunderground v.1.15,2013-02-16 20:20:00,
2013-02-16 15:26:00,32.8,14.3,29.97,NNW,335,3.0,3.0,46,0.00,,,0.00,Wunderground v.1.15,2013-02-16 20:26:00,
2013-02-16 15:32:00,31.2,13.3,29.97,NNW,331,3.0,3.0,47,0.00,,,0.00,Wunderground v.1.15,2013-02-16 20:32:00,
2013-02-16 15:38:00,30.2,13.3,29.97,North,5,2.0,4.0,49,0.00,,,0.00,Wunderground v.1.15,2013-02-16 20:38:00,
2013-02-16 15:43:00,30.0,13.6,29.97,NNW,346,2.0,3.0,50,0.00,,,0.00,Wunderground v.1.15,2013-02-16 20:43:00,
2013-02-16 15:49:00,30.4,13.0,29.97,NNE,23,2.0,3.0,48,0.00,,,0.00,Wunderground v.1.15,2013-02-16 20:49:00,
2013-02-16 15:56:00,31.7,13.3,29.97,NE,35,2.0,5.0,46,0.00,,,0.00,Wunderground v.1.15,2013-02-16 20:56:00,
2013-02-16 16:02:00,30.8,11.9,29.97,NE,36,3.0,6.0,45,0.00,,,0.00,Wunderground v.1.15,2013-02-16 21:02:00,
2013-02-16 16:08:00,30.0,11.2,29.98,NE,40,3.0,6.0,45,0.00,,,0.00,Wunderground v.1.15,2013-02-16 21:08:00,
2013-02-16 16:13:00,29.5,10.2,29.97,NNE,26,4.0,4.0,44,0.00,,,0.00,Wunderground v.1.15,2013-02-16 21:13:00,
2013-02-16 16:20:00,29.3,10.6,29.96,North,9,3.0,4.0,45,0.00,,,0.00,Wunderground v.1.15,2013-02-16 21:20:00,
2013-02-16 16:26:00,28.9,9.7,29.97,NNE,19,3.0,4.0,44,0.00,,,0.00,Wunderground v.1.15,2013-02-16 21:26:00,
2013-02-16 16:32:00,28.7,10.0,29.97,North,5,3.0,3.0,45,0.00,,,0.00,Wunderground v.1.15,2013-02-16 21:32:00,
2013-02-16 16:38:00,28.5,9.8,29.97,North,9,1.0,3.0,45,0.00,,,0.00,Wunderground v.1.15,2013-02-16 21:38:00,
2013-02-16 16:43:00,28.1,9.9,29.97,North,360,1.0,1.0,46,0.00,,,0.00,Wunderground v.1.15,2013-02-16 21:43:00,
2013-02-16 16:50:00,27.7,10.1,29.97,North,5,1.0,1.0,47,0.00,,,0.00,Wunderground v.1.15,2013-02-16 21:50:00,
2013-02-16 16:56:00,27.4,10.3,29.97,North,5,1.0,2.0,48,0.00,,,0.00,Wunderground v.1.15,2013-02-16 21:56:00,
2013-02-16 17:02:00,27.1,9.5,29.98,North,5,1.0,2.0,47,0.00,,,0.00,Wunderground v.1.15,2013-02-16 22:02:00,
2013-02-16 17:07:00,26.9,9.8,29.98,North,350,0.0,2.0,48,0.00,,,0.00,Wunderground v.1.15,2013-02-16 22:07:00,
2013-02-16 17:14:00,26.7,9.6,29.97,North,360,0.0,0.0,48,0.00,,,0.00,Wunderground v.1.15,2013-02-16 22:14:00,
2013-02-16 17:20:00,26.5,9.4,29.97,North,360,0.0,0.0,48,0.00,,,0.00,Wunderground v.1.15,2013-02-16 22:20:00,
2013-02-16 17:26:00,26.2,9.6,29.98,North,360,0.0,0.0,49,0.00,,,0.00,Wunderground v.1.15,2013-02-16 22:26:00,
2013-02-16 17:32:00,26.0,9.9,29.98,North,360,0.0,0.0,50,0.00,,,0.00,Wunderground v.1.15,2013-02-16 22:32:00,
2013-02-16 17:37:00,25.8,9.7,29.98,North,360,0.0,0.0,50,0.00,,,0.00,Wunderground v.1.15,2013-02-16 22:37:00,
2013-02-16 17:44:00,25.6,10.0,29.98,North,360,0.0,0.0,51,0.00,,,0.00,Wunderground v.1.15,2013-02-16 22:44:00,
2013-02-16 17:50:00,25.4,10.2,29.98,North,360,0.0,0.0,52,0.00,,,0.00,Wunderground v.1.15,2013-02-16 22:50:00,
2013-02-16 17:55:00,25.2,10.9,29.98,North,360,0.0,0.0,54,0.00,,,0.00,Wunderground v.1.15,2013-02-16 22:55:00,
2013-02-16 18:02:00,24.8,9.6,29.98,North,360,0.0,0.0,52,0.00,,,0.00,Wunderground v.1.15,2013-02-16 23:02:00,
2013-02-16 18:07:00,24.5,10.2,29.98,North,360,0.0,0.0,54,0.00,,,0.00,Wunderground v.1.15,2013-02-16 23:07:00,
2013-02-16 18:14:00,24.2,10.3,29.98,North,351,0.0,0.0,55,0.00,,,0.00,Wunderground v.1.15,2013-02-16 23:14:00,
2013-02-16 18:20:00,24.0,10.2,29.99,North,355,0.0,1.0,55,0.00,,,0.00,Wunderground v.1.15,2013-02-16 23:20:00,
2013-02-16 18:25:00,24.0,10.2,29.99,NW,319,1.0,3.0,55,0.00,,,0.00,Wunderground v.1.15,2013-02-16 23:25:00,
2013-02-16 18:32:00,24.1,10.6,29.99,NW,326,2.0,2.0,56,0.00,,,0.00,Wunderground v.1.15,2013-02-16 23:32:00,
2013-02-16 18:38:00,24.2,10.3,30.00,NW,321,1.0,4.0,55,0.00,,,0.00,Wunderground v.1.15,2013-02-16 23:38:00,
2013-02-16 18:44:00,24.2,10.3,29.99,NW,321,2.0,2.0,55,0.00,,,0.00,Wunderground v.1.15,2013-02-16 23:44:00,
2013-02-16 18:50:00,24.0,10.6,30.00,NW,315,2.0,4.0,56,0.00,,,0.00,Wunderground v.1.15,2013-02-16 23:50:00,
2013-02-16 18:56:00,23.9,10.5,29.99,NW,318,2.0,4.0,56,0.00,,,0.00,Wunderground v.1.15,2013-02-16 23:56:00,
2013-02-16 19:02:00,23.9,10.5,29.99,NW,321,2.0,3.0,56,0.00,,,0.00,Wunderground v.1.15,2013-02-17 00:02:00,
2013-02-16 19:08:00,23.8,10.4,29.99,NW,322,1.0,3.0,56,0.00,,,0.00,Wunderground v.1.15,2013-02-17 00:08:00,
2013-02-16 19:14:00,23.6,10.2,29.98,NW,322,1.0,2.0,56,0.00,,,0.00,Wunderground v.1.15,2013-02-17 00:14:00,
2013-02-16 19:19:00,23.5,10.1,29.99,NW,322,1.0,2.0,56,0.00,,,0.00,Wunderground v.1.15,2013-02-17 00:19:00,
2013-02-16 19:26:00,23.4,10.4,29.99,NW,322,0.0,2.0,57,0.00,,,0.00,Wunderground v.1.15,2013-02-17 00:26:00,
2013-02-16 19:32:00,23.2,10.2,29.99,NW,322,1.0,2.0,57,0.00,,,0.00,Wunderground v.1.15,2013-02-17 00:32:00,
2013-02-16 19:37:00,23.1,10.1,29.99,NW,322,1.0,2.0,57,0.00,,,0.00,Wunderground v.1.15,2013-02-17 00:37:00,
2013-02-16 19:44:00,22.9,10.3,29.99,NW,323,1.0,3.0,58,0.00,,,0.00,Wunderground v.1.15,2013-02-17 00:44:00,
2013-02-16 19:49:00,22.8,10.2,29.98,NW,323,2.0,2.0,58,0.00,,,0.00,Wunderground v.1.15,2013-02-17 00:49:00,
2013-02-16 19:56:00,22.8,9.8,29.98,NW,321,2.0,2.0,57,0.00,,,0.00,Wunderground v.1.15,2013-02-17 00:56:00,
2013-02-16 20:02:00,22.7,10.1,29.98,NW,326,2.0,3.0,58,0.00,,,0.00,Wunderground v.1.15,2013-02-17 01:02:00,
2013-02-16 20:07:00,22.6,10.0,29.97,NW,324,2.0,3.0,58,0.00,,,0.00,Wunderground v.1.15,2013-02-17 01:07:00,
2013-02-16 20:14:00,22.5,9.9,29.98,NW,324,1.0,1.0,58,0.00,,,0.00,Wunderground v.1.15,2013-02-17 01:14:00,
2013-02-16 20:20:00,22.4,10.2,29.98,NW,324,0.0,0.0,59,0.00,,,0.00,Wunderground v.1.15,2013-02-17 01:20:00,
2013-02-16 20:26:00,22.3,10.1,29.98,NW,324,0.0,2.0,59,0.00,,,0.00,Wunderground v.1.15,2013-02-17 01:26:00,
2013-02-16 20:32:00,22.0,9.8,29.98,NW,324,1.0,2.0,59,0.00,,,0.00,Wunderground v.1.15,2013-02-17 01:32:00,
2013-02-16 20:37:00,21.9,10.1,29.97,NW,324,1.0,2.0,60,0.00,,,0.00,Wunderground v.1.15,2013-02-17 01:37:00,
2013-02-16 20:44:00,21.6,9.8,29.97,NW,324,0.0,0.0,60,0.00,,,0.00,Wunderground v.1.15,2013-02-17 01:44:00,
2013-02-16 20:49:00,21.4,10.0,29.97,NW,324,0.0,2.0,61,0.00,,,0.00,Wunderground v.1.15,2013-02-17 01:49:00,
2013-02-16 20:56:00,21.2,9.8,29.97,North,5,1.0,2.0,61,0.00,,,0.00,Wunderground v.1.15,2013-02-17 01:56:00,
2013-02-16 21:02:00,21.1,9.7,29.97,NNW,336,1.0,3.0,61,0.00,,,0.00,Wunderground v.1.15,2013-02-17 02:02:00,
2013-02-16 21:07:00,21.1,9.7,29.97,NNW,334,2.0,9.0,61,0.00,,,0.00,Wunderground v.1.15,2013-02-17 02:07:00,
2013-02-16 21:13:00,21.1,9.7,29.97,North,360,2.0,3.0,61,0.00,,,0.00,Wunderground v.1.15,2013-02-17 02:13:00,
2013-02-16 21:20:00,21.1,10.1,29.97,North,350,1.0,1.0,62,0.00,,,0.00,Wunderground v.1.15,2013-02-17 02:20:00,
2013-02-16 21:25:00,21.0,10.0,29.96,NNW,333,1.0,1.0,62,0.00,,,0.00,Wunderground v.1.15,2013-02-17 02:25:00,
2013-02-16 21:32:00,20.9,9.9,29.97,NNW,329,1.0,1.0,62,0.00,,,0.00,Wunderground v.1.15,2013-02-17 02:32:00,
2013-02-16 21:37:00,20.7,9.7,29.96,NNW,329,0.0,1.0,62,0.00,,,0.00,Wunderground v.1.15,2013-02-17 02:37:00,
2013-02-16 21:44:00,20.6,9.6,29.96,North,350,0.0,1.0,62,0.00,,,0.00,Wunderground v.1.15,2013-02-17 02:44:00,
2013-02-16 21:49:00,20.4,9.4,29.96,NNW,348,0.0,0.0,62,0.00,,,0.00,Wunderground v.1.15,2013-02-17 02:49:00,
2013-02-16 21:56:00,20.3,9.3,29.96,NNW,343,1.0,4.0,62,0.00,,,0.00,Wunderground v.1.15,2013-02-17 02:56:00,
2013-02-16 22:01:00,20.2,9.2,29.96,NNW,335,1.0,2.0,62,0.00,,,0.00,Wunderground v.1.15,2013-02-17 03:01:00,
2013-02-16 22:07:00,20.2,9.6,29.96,NNW,333,1.0,2.0,63,0.00,,,0.00,Wunderground v.1.15,2013-02-17 03:07:00,
2013-02-16 22:14:00,20.1,9.5,29.95,NNW,329,1.0,1.0,63,0.00,,,0.00,Wunderground v.1.15,2013-02-17 03:14:00,
2013-02-16 22:19:00,19.9,9.3,29.95,NNW,332,1.0,4.0,63,0.00,,,0.00,Wunderground v.1.15,2013-02-17 03:19:00,
2013-02-16 22:26:00,19.8,9.2,29.95,NNW,331,1.0,4.0,63,0.00,,,0.00,Wunderground v.1.15,2013-02-17 03:26:00,
2013-02-16 22:31:00,19.6,9.0,29.95,NNW,333,0.0,1.0,63,0.00,,,0.00,Wunderground v.1.15,2013-02-17 03:31:00,
2013-02-16 22:37:00,19.4,8.8,29.95,NNW,344,0.0,2.0,63,0.00,,,0.00,Wunderground v.1.15,2013-02-17 03:37:00,
2013-02-16 22:44:00,19.2,8.7,29.95,NE,44,1.0,4.0,63,0.00,,,0.00,Wunderground v.1.15,2013-02-17 03:44:00,
2013-02-16 22:50:00,19.1,8.2,29.94,NNE,23,2.0,5.0,62,0.00,,,0.00,Wunderground v.1.15,2013-02-17 03:50:00,
2013-02-16 22:56:00,19.1,8.2,29.94,NNE,15,2.0,5.0,62,0.00,,,0.00,Wunderground v.1.15,2013-02-17 03:56:00,
2013-02-16 23:02:00,19.0,8.1,29.94,NNE,18,2.0,3.0,62,0.00,,,0.00,Wunderground v.1.15,2013-02-17 04:02:00,
2013-02-16 23:08:00,18.9,8.4,29.93,North,5,1.0,3.0,63,0.00,,,0.00,Wunderground v.1.15,2013-02-17 04:08:00,
2013-02-16 23:13:00,18.7,8.2,29.92,North,9,1.0,1.0,63,0.00,,,0.00,Wunderground v.1.15,2013-02-17 04:13:00,
2013-02-16 23:19:00,18.6,8.1,29.92,North,360,0.0,0.0,63,0.00,,,0.00,Wunderground v.1.15,2013-02-17 04:19:00,
2013-02-16 23:25:00,18.4,8.2,29.92,North,360,0.0,1.0,64,0.00,,,0.00,Wunderground v.1.15,2013-02-17 04:25:00,
2013-02-16 23:31:00,18.2,8.1,29.92,North,360,0.0,0.0,64,0.00,,,0.00,Wunderground v.1.15,2013-02-17 04:31:00,
2013-02-16 23:37:00,18.0,7.9,29.92,North,351,0.0,1.0,64,0.00,,,0.00,Wunderground v.1.15,2013-02-17 04:37:00,
2013-02-16 23:43:00,17.9,8.1,29.92,North,355,0.0,0.0,65,0.00,,,0.00,Wunderground v.1.15,2013-02-17 04:43:00,
2013-02-16 23:49:00,17.8,8.0,29.92,North,355,1.0,1.0,65,0.00,,,0.00,Wunderground v.1.15,2013-02-17 04:49:00,
2013-02-16 23:55:00,17.8,8.0,29.92,North,355,1.0,1.0,65,0.00,,,0.00,Wunderground v.1.15,2013-02-17 04:55:00,